Time;durP1;ratioP1;P1;durP2;ratioP2;P2;SDS_P1;SDS_P2;PMS_P1;PMS_P2;Temp;Humidity;BMP_temperature;BMP_pressure;BME280_temperature;BME280_humidity;BME280_pressure;Samples;Min_cycle;Max_cycle;Signal;HPM_P1;HPM_P2
2021/01/25 00:02:04;;;;;;;;;;;;;;;;;;5015906;28;19909;-64
2021/01/25 00:04:30;;;;;;;;;;;;;;;;;;5015865;28;20327;-64
2021/01/25 00:06:56;;;;;;;;;;;;;;;;;;5016096;28;19963;-62
2021/01/25 00:09:22;;;;;;;;;;;;;;;;;;5015747;28;19914;-63
2021/01/25 00:11:48;;;;;;;;;;;;;;;;;;5016007;28;19950;-63
2021/01/25 00:14:14;;;;;;;;;;;;;;;;;;5015928;28;19963;-64
2021/01/25 00:16:40;;;;;;;;;;;;;;;;;;5015556;28;19916;-63
2021/01/25 00:19:06;;;;;;;;;;;;;;;;;;5015577;28;19923;-63
2021/01/25 00:21:32;;;;;;;;;;;;;;;;;;5015504;28;19924;-63
2021/01/25 00:23:58;;;;;;;;;;;;;;;;;;5015491;28;19960;-63
2021/01/25 00:26:24;;;;;;;;;;;;;;;;;;5015416;28;20055;-63
2021/01/25 00:28:50;;;;;;;;;;;;;;;;;;5015526;28;19964;-63
2021/01/25 00:31:16;;;;;;;;;;;;;;;;;;5015762;28;20325;-63
2021/01/25 00:33:42;;;;;;;;;;;;;;;;;;5015258;28;19946;-64
2021/01/25 00:36:08;;;;;;;;;;;;;;;;;;5014904;28;19909;-63
2021/01/25 00:38:34;;;;;;;;;;;;;;;;;;5015619;28;19928;-64
2021/01/25 00:41:00;;;;;;;;;;;;;;;;;;5015536;28;20344;-64
2021/01/25 00:43:26;;;;;;;;;;;;;;;;;;5015377;28;19913;-64
2021/01/25 00:45:52;;;;;;;;;;;;;;;;;;5015125;28;20334;-64
2021/01/25 00:48:18;;;;;;;;;;;;;;;;;;5015217;28;19997;-63
2021/01/25 00:50:44;;;;;;;;;;;;;;;;;;5015002;28;19991;-64
2021/01/25 00:53:10;;;;;;;;;;;;;;;;;;5015125;28;20361;-64
2021/01/25 00:55:36;;;;;;;;;;;;;;;;;;5014913;28;19914;-63
2021/01/25 00:58:02;;;;;;;;;;;;;;;;;;5015084;28;19954;-63
2021/01/25 01:00:28;;;;;;;;;;;;;;;;;;5014862;28;19917;-64
2021/01/25 01:02:54;;;;;;;;;;;;;;;;;;5014699;28;19956;-63
2021/01/25 01:05:20;;;;;;;;;;;;;;;;;;5014919;28;19995;-63
2021/01/25 01:07:46;;;;;;;;;;;;;;;;;;5014984;28;19937;-62
2021/01/25 01:10:13;;;;;;;;;;;;;;;;;;5014675;28;20366;-64
2021/01/25 01:12:39;;;;;;;;;;;;;;;;;;5014619;28;19944;-64
2021/01/25 01:15:05;;;;;;;;;;;;;;;;;;5014886;28;20008;-63
2021/01/25 01:17:31;;;;;;;;;;;;;;;;;;5014498;28;20388;-64
2021/01/25 01:19:57;;;;;;;;;;;;;;;;;;5014641;28;19913;-64
2021/01/25 01:22:23;;;;;;;;;;;;;;;;;;5014639;28;19917;-64
2021/01/25 01:24:49;;;;;;;;;;;;;;;;;;5014377;28;20441;-64
2021/01/25 01:27:15;;;;;;;;;;;;;;;;;;5014348;28;20026;-64
2021/01/25 01:29:41;;;;;;;;;;;;;;;;;;5014310;28;20016;-64
2021/01/25 01:32:07;;;;;;;;;;;;;;;;;;5014398;28;19950;-64
2021/01/25 01:34:33;;;;;;;;;;;;;;;;;;5014278;28;20397;-63
2021/01/25 01:36:58;;;;;;;;;;;;;;;;;;5014304;28;19909;-64
2021/01/25 01:39:24;;;;;;;;;;;;;;;;;;5014205;28;19924;-64
2021/01/25 01:41:50;;;;;;;;;;;;;;;;;;5014475;28;19951;-64
2021/01/25 01:44:16;;;;;;;;;;;;;;;;;;5014084;28;20381;-64
2021/01/25 01:46:42;;;;;;;;;;;;;;;;;;5013587;28;19951;-63
2021/01/25 01:49:08;;;;;;;;;;;;;;;;;;5014147;28;20400;-63
2021/01/25 01:51:34;;;;;;;;;;;;;;;;;;5014333;28;19954;-64
2021/01/25 01:54:00;;;;;;;;;;;;;;;;;;5013984;28;19916;-64
2021/01/25 01:56:26;;;;;;;;;;;;;;;;;;5013989;28;19985;-64
2021/01/25 01:58:52;;;;;;;;;;;;;;;;;;5014004;28;19932;-63
2021/01/25 02:01:18;;;;;;;;;;;;;;;;;;5013926;28;19955;-63
2021/01/25 02:03:44;;;;;;;;;;;;;;;;;;5014178;28;19928;-64
2021/01/25 02:06:10;;;;;;;;;;;;;;;;;;5013892;28;20389;-64
2021/01/25 02:08:36;;;;;;;;;;;;;;;;;;5013800;28;19950;-63
2021/01/25 02:11:02;;;;;;;;;;;;;;;;;;5014204;28;19992;-64
2021/01/25 02:13:28;;;;;;;;;;;;;;;;;;5013805;28;20370;-64
2021/01/25 02:15:54;;;;;;;;;;;;;;;;;;5014191;28;19936;-64
2021/01/25 02:18:20;;;;;;;;;;;;;;;;;;5013694;28;20294;-64
2021/01/25 02:20:46;;;;;;;;;;;;;;;;;;5013927;28;19965;-64
2021/01/25 02:23:12;;;;;;;;;;;;;;;;;;5013910;28;19936;-64
2021/01/25 02:25:38;;;;;;;;;;;;;;;;;;5013680;28;19963;-64
2021/01/25 02:28:04;;;;;;;;;;;;;;;;;;5012925;28;19913;-64
2021/01/25 02:30:30;;;;;;;;;;;;;;;;;;5013570;28;20434;-64
2021/01/25 02:32:56;;;;;;;;;;;;;;;;;;5014030;28;19925;-63
2021/01/25 02:35:22;;;;;;;;;;;;;;;;;;5013616;28;20418;-64
2021/01/25 02:37:48;;;;;;;;;;;;;;;;;;5013964;28;19937;-63
2021/01/25 02:40:14;;;;;;;;;;;;;;;;;;5013946;28;19926;-64
2021/01/25 02:42:40;;;;;;;;;;;;;;;;;;5013721;28;20274;-64
2021/01/25 02:45:06;;;;;;;;;;;;;;;;;;5013538;28;19948;-64
2021/01/25 02:47:32;;;;;;;;;;;;;;;;;;5013520;28;19932;-64
2021/01/25 02:49:58;;;;;;;;;;;;;;;;;;5013655;28;20001;-64
2021/01/25 02:52:24;;;;;;;;;;;;;;;;;;5013772;28;19923;-64
2021/01/25 02:54:50;;;;;;;;;;;;;;;;;;5013559;28;20376;-64
2021/01/25 02:57:16;;;;;;;;;;;;;;;;;;5013515;28;19909;-64
2021/01/25 02:59:42;;;;;;;;;;;;;;;;;;5017183;28;19986;-63
2021/01/25 03:02:08;;;;;;;;;;;;;;;;;;5017000;28;20403;-64
2021/01/25 03:04:34;;;;;;;;;;;;;;;;;;5017254;28;19910;-64
2021/01/25 03:07:00;;;;;;;;;;;;;;;;;;5017311;28;19948;-64
2021/01/25 03:09:26;;;;;;;;;;;;;;;;;;5017112;28;20362;-64
2021/01/25 03:11:52;;;;;;;;;;;;;;;;;;5016920;28;20363;-64
2021/01/25 03:14:18;;;;;;;;;;;;;;;;;;5016747;28;19937;-66
2021/01/25 03:16:44;;;;;;;;;;;;;;;;;;5016919;28;19951;-64
2021/01/25 03:19:10;;;;;;;;;;;;;;;;;;5016694;28;19916;-65
2021/01/25 03:21:36;;;;;;;;;;;;;;;;;;5017163;28;19920;-64
2021/01/25 03:24:03;;;;;;;;;;;;;;;;;;5016678;28;20325;-64
2021/01/25 03:26:29;;;;;;;;;;;;;;;;;;5016944;28;20475;-64
2021/01/25 03:28:55;;;;;;;;;;;;;;;;;;5016514;28;20366;-64
2021/01/25 03:31:21;;;;;;;;;;;;;;;;;;5016852;28;20000;-64
2021/01/25 03:33:47;;;;;;;;;;;;;;;;;;5016526;28;20410;-63
2021/01/25 03:36:13;;;;;;;;;;;;;;;;;;5016420;28;19910;-64
2021/01/25 03:38:39;;;;;;;;;;;;;;;;;;5016415;28;19965;-64
2021/01/25 03:41:05;;;;;;;;;;;;;;;;;;5016465;28;19944;-64
2021/01/25 03:43:31;;;;;;;;;;;;;;;;;;5016610;28;20319;-64
2021/01/25 03:45:57;;;;;;;;;;;;;;;;;;5016403;28;19945;-64
2021/01/25 03:48:23;;;;;;;;;;;;;;;;;;5016223;28;20294;-64
2021/01/25 03:50:49;;;;;;;;;;;;;;;;;;5015994;28;19917;-64
2021/01/25 03:53:15;;;;;;;;;;;;;;;;;;5016213;28;19932;-64
2021/01/25 03:55:41;;;;;;;;;;;;;;;;;;5016329;28;19951;-64
2021/01/25 03:58:07;;;;;;;;;;;;;;;;;;5016340;28;19929;-64
2021/01/25 04:00:33;;;;;;;;;;;;;;;;;;5016239;28;19927;-64
2021/01/25 04:02:59;;;;;;;;;;;;;;;;;;5015911;28;20399;-64
2021/01/25 04:05:25;;;;;;;;;;;;;;;;;;5015847;28;20023;-64
2021/01/25 04:07:51;;;;;;;;;;;;;;;;;;5016207;28;19924;-63
2021/01/25 04:10:17;;;;;;;;;;;;;;;;;;5014926;28;19965;-64
2021/01/25 04:12:43;;;;;;;;;;;;;;;;;;5015790;28;19909;-64
2021/01/25 04:15:09;;;;;;;;;;;;;;;;;;5015717;28;20411;-63
2021/01/25 04:17:35;;;;;;;;;;;;;;;;;;5015618;28;19924;-63
2021/01/25 04:20:01;;;;;;;;;;;;;;;;;;5015914;28;19953;-63
2021/01/25 04:22:27;;;;;;;;;;;;;;;;;;5015501;28;20331;-64
2021/01/25 04:24:53;;;;;;;;;;;;;;;;;;5015319;28;19960;-64
2021/01/25 04:27:19;;;;;;;;;;;;;;;;;;5015795;28;19993;-64
2021/01/25 04:29:45;;;;;;;;;;;;;;;;;;5015342;28;19997;-64
2021/01/25 04:32:11;;;;;;;;;;;;;;;;;;5015323;28;19928;-64
2021/01/25 04:34:37;;;;;;;;;;;;;;;;;;5015345;28;19974;-64
2021/01/25 04:37:03;;;;;;;;;;;;;;;;;;5015753;28;19992;-64
2021/01/25 04:39:29;;;;;;;;;;;;;;;;;;5015520;28;19969;-64
2021/01/25 04:41:55;;;;;;;;;;;;;;;;;;5015257;28;19944;-64
2021/01/25 04:44:20;;;;;;;;;;;;;;;;;;5015269;28;19920;-64
2021/01/25 04:46:46;;;;;;;;;;;;;;;;;;5015245;28;19959;-63
2021/01/25 04:49:12;;;;;;;;;;;;;;;;;;5015066;28;20412;-64
2021/01/25 04:51:38;;;;;;;;;;;;;;;;;;5015112;28;19921;-64
2021/01/25 04:54:04;;;;;;;;;;;;;;;;;;5014921;28;19924;-64
2021/01/25 04:56:30;;;;;;;;;;;;;;;;;;5015218;28;19959;-64
2021/01/25 04:58:56;;;;;;;;;;;;;;;;;;5014829;28;20169;-64
2021/01/25 05:01:22;;;;;;;;;;;;;;;;;;5014822;28;19916;-65
2021/01/25 05:03:48;;;;;;;;;;;;;;;;;;5014871;28;19956;-64
2021/01/25 05:06:14;;;;;;;;;;;;;;;;;;5014751;28;20356;-64
2021/01/25 05:08:40;;;;;;;;;;;;;;;;;;5014929;28;19920;-64
2021/01/25 05:11:06;;;;;;;;;;;;;;;;;;5014574;28;19970;-64
2021/01/25 05:13:32;;;;;;;;;;;;;;;;;;5014801;28;20266;-65
2021/01/25 05:15:58;;;;;;;;;;;;;;;;;;5014583;28;19909;-64
2021/01/25 05:18:24;;;;;;;;;;;;;;;;;;5014569;28;19965;-64
2021/01/25 05:20:50;;;;;;;;;;;;;;;;;;5014417;28;19960;-64
2021/01/25 05:23:17;;;;;;;;;;;;;;;;;;5014899;28;20006;-64
2021/01/25 05:25:43;;;;;;;;;;;;;;;;;;5012159;28;20062;-64
2021/01/25 05:28:09;;;;;;;;;;;;;;;;;;5014772;28;19960;-64
2021/01/25 05:30:35;;;;;;;;;;;;;;;;;;5014299;28;19992;-65
2021/01/25 05:33:01;;;;;;;;;;;;;;;;;;5014318;28;19916;-65
2021/01/25 05:35:27;;;;;;;;;;;;;;;;;;5014548;28;19913;-65
2021/01/25 05:37:53;;;;;;;;;;;;;;;;;;5014617;28;19931;-66
2021/01/25 05:40:19;;;;;;;;;;;;;;;;;;5014334;28;20022;-66
2021/01/25 05:42:45;;;;;;;;;;;;;;;;;;5006750;28;20380;-64
2021/01/25 05:45:11;;;;;;;;;;;;;;;;;;5012303;28;19947;-65
2021/01/25 05:47:37;;;;;;;;;;;;;;;;;;5011624;28;20402;-64
2021/01/25 05:50:03;;;;;;;;;;;;;;;;;;5012826;28;20048;-65
2021/01/25 05:52:29;;;;;;;;;;;;;;;;;;5014070;28;20322;-65
2021/01/25 05:54:55;;;;;;;;;;;;;;;;;;5013915;28;19965;-65
2021/01/25 05:57:21;;;;;;;;;;;;;;;;;;5014153;28;19931;-64
2021/01/25 05:59:47;;;;;;;;;;;;;;;;;;5013939;28;19928;-65
2021/01/25 06:02:13;;;;;;;;;;;;;;;;;;5014185;28;19920;-65
2021/01/25 06:04:39;;;;;;;;;;;;;;;;;;5014319;28;19958;-65
2021/01/25 06:07:05;;;;;;;;;;;;;;;;;;5014131;28;20048;-64
2021/01/25 06:09:31;;;;;;;;;;;;;;;;;;5014066;28;20412;-64
2021/01/25 06:11:57;;;;;;;;;;;;;;;;;;5013923;28;19951;-64
2021/01/25 06:14:23;;;;;;;;;;;;;;;;;;5013808;28;19925;-64
2021/01/25 06:16:49;;;;;;;;;;;;;;;;;;5014037;28;19920;-65
2021/01/25 06:19:15;;;;;;;;;;;;;;;;;;5013697;28;19996;-65
2021/01/25 06:21:41;;;;;;;;;;;;;;;;;;5014032;28;19926;-65
2021/01/25 06:24:07;;;;;;;;;;;;;;;;;;5013593;28;20314;-64
2021/01/25 06:26:33;;;;;;;;;;;;;;;;;;5014005;28;19932;-65
2021/01/25 06:29:00;;;;;;;;;;;;;;;;;;5013746;28;19924;-64
2021/01/25 06:31:26;;;;;;;;;;;;;;;;;;5013916;28;20316;-65
2021/01/25 06:33:52;;;;;;;;;;;;;;;;;;5016009;28;19930;-64
2021/01/25 06:36:18;;;;;;;;;;;;;;;;;;5017567;28;19948;-65
2021/01/25 06:38:44;;;;;;;;;;;;;;;;;;5017746;28;19998;-65
2021/01/25 06:41:10;;;;;;;;;;;;;;;;;;5017713;28;20006;-65
2021/01/25 06:43:36;;;;;;;;;;;;;;;;;;5017278;28;20423;-65
2021/01/25 06:46:02;;;;;;;;;;;;;;;;;;5017348;28;19955;-65
2021/01/25 06:48:28;;;;;;;;;;;;;;;;;;5017357;28;19923;-64
2021/01/25 06:50:54;;;;;;;;;;;;;;;;;;5017161;28;20400;-64
2021/01/25 06:53:20;;;;;;;;;;;;;;;;;;5017177;28;19926;-65
2021/01/25 06:55:46;;;;;;;;;;;;;;;;;;5017129;28;19955;-65
2021/01/25 06:58:12;;;;;;;;;;;;;;;;;;5017016;28;20278;-65
2021/01/25 07:00:38;;;;;;;;;;;;;;;;;;5017128;28;19910;-65
2021/01/25 07:03:04;;;;;;;;;;;;;;;;;;5017353;28;20014;-65
2021/01/25 07:05:30;;;;;;;;;;;;;;;;;;5017066;28;19924;-65
2021/01/25 07:07:56;;;;;;;;;;;;;;;;;;5017074;28;19926;-65
2021/01/25 07:10:22;;;;;;;;;;;;;;;;;;5017003;28;19948;-65
2021/01/25 07:12:48;;;;;;;;;;;;;;;;;;5016875;28;20324;-65
2021/01/25 07:15:14;;;;;;;;;;;;;;;;;;5016968;28;19948;-65
2021/01/25 07:17:40;;;;;;;;;;;;;;;;;;5017082;28;19984;-65
2021/01/25 07:20:06;;;;;;;;;;;;;;;;;;5016767;28;20393;-65
2021/01/25 07:22:32;;;;;;;;;;;;;;;;;;5024342;28;19949;-66
2021/01/25 07:24:58;;;;;;;;;;;;;;;;;;5034653;28;19966;-66
2021/01/25 07:27:24;;;;;;;;;;;;;;;;;;5029397;28;20396;-66
2021/01/25 07:29:50;;;;;;;;;;;;;;;;;;5016420;28;20020;-66
2021/01/25 07:32:16;;;;;;;;;;;;;;;;;;5022667;28;19925;-66
2021/01/25 07:34:41;;;;;;;;;;;;;;;;;;5031320;28;20396;-65
2021/01/25 07:37:07;;;;;;;;;;;;;;;;;;5030351;28;19929;-65
2021/01/25 07:39:33;;;;;;;;;;;;;;;;;;5030126;28;20412;-63
2021/01/25 07:41:59;;;;;;;;;;;;;;;;;;5031672;28;19909;-65
2021/01/25 07:44:25;;;;;;;;;;;;;;;;;;5034506;28;19927;-64
2021/01/25 07:46:51;;;;;;;;;;;;;;;;;;5025245;28;19967;-64
2021/01/25 07:49:17;;;;;;;;;;;;;;;;;;5017733;28;20388;-64
2021/01/25 07:51:43;;;;;;;;;;;;;;;;;;5030467;28;20005;-65
2021/01/25 07:54:09;;;;;;;;;;;;;;;;;;5035854;28;19927;-65
2021/01/25 07:56:35;;;;;;;;;;;;;;;;;;5029466;28;19944;-64
2021/01/25 07:59:01;;;;;;;;;;;;;;;;;;5026987;28;19983;-65
2021/01/25 08:01:27;;;;;;;;;;;;;;;;;;5018369;28;20385;-65
2021/01/25 08:03:53;;;;;;;;;;;;;;;;;;5029649;28;19910;-65
2021/01/25 08:06:19;;;;;;;;;;;;;;;;;;5019934;28;19966;-64
2021/01/25 08:08:45;;;;;;;;;;;;;;;;;;5017568;28;19931;-63
2021/01/25 08:11:11;;;;;;;;;;;;;;;;;;5016652;28;20010;-65
2021/01/25 08:13:37;;;;;;;;;;;;;;;;;;5016715;28;19949;-65
2021/01/25 08:16:03;;;;;;;;;;;;;;;;;;5015204;28;20266;-64
2021/01/25 08:18:29;;;;;;;;;;;;;;;;;;5015537;28;19924;-64
2021/01/25 08:20:55;;;;;;;;;;;;;;;;;;5015892;28;19950;-64
2021/01/25 08:23:21;;;;;;;;;;;;;;;;;;5021679;28;19920;-65
2021/01/25 08:25:47;;;;;;;;;;;;;;;;;;5034998;28;19976;-65
2021/01/25 08:28:13;;;;;;;;;;;;;;;;;;5023744;28;19924;-65
2021/01/25 08:30:39;;;;;;;;;;;;;;;;;;5015220;28;19917;-66
2021/01/25 08:33:05;;;;;;;;;;;;;;;;;;5015491;28;19910;-65
2021/01/25 08:35:31;;;;;;;;;;;;;;;;;;5015175;28;19948;-65
2021/01/25 08:37:57;;;;;;;;;;;;;;;;;;5032993;28;19917;-65
2021/01/25 08:40:23;;;;;;;;;;;;;;;;;;5034891;28;19916;-66
2021/01/25 08:42:49;;;;;;;;;;;;;;;;;;5035008;28;20024;-65
2021/01/25 08:45:15;;;;;;;;;;;;;;;;;;5034369;28;19943;-65
2021/01/25 08:47:41;;;;;;;;;;;;;;;;;;5035112;28;19916;-65
2021/01/25 08:50:06;;;;;;;;;;;;;;;;;;5034920;28;19920;-65
2021/01/25 08:52:35;;;;;;;;;;;;;;;;;;5034948;28;20392;-65
2021/01/25 08:55:01;;;;;;;;;;;;;;;;;;5034741;28;19928;-65
2021/01/25 08:57:27;;;;;;;;;;;;;;;;;;5034439;28;20005;-65
2021/01/25 08:59:53;;;;;;;;;;;;;;;;;;5034955;28;19948;-65
2021/01/25 09:02:19;;;;;;;;;;;;;;;;;;5034965;28;20417;-65
2021/01/25 09:04:45;;;;;;;;;;;;;;;;;;5034551;28;20361;-64
2021/01/25 09:07:10;;;;;;;;;;;;;;;;;;5034459;28;19924;-63
2021/01/25 09:09:36;;;;;;;;;;;;;;;;;;5034639;28;20002;-64
2021/01/25 09:12:03;;;;;;;;;;;;;;;;;;5034354;28;19920;-63
2021/01/25 09:14:29;;;;;;;;;;;;;;;;;;5034503;28;19920;-63
2021/01/25 09:16:54;;;;;;;;;;;;;;;;;;5034694;28;19920;-63
2021/01/25 09:19:20;;;;;;;;;;;;;;;;;;5034531;28;19927;-63
2021/01/25 09:21:46;;;;;;;;;;;;;;;;;;5034148;28;20371;-63
2021/01/25 09:24:12;;;;;;;;;;;;;;;;;;5034202;28;19951;-62
2021/01/25 09:26:38;;;;;;;;;;;;;;;;;;5034173;28;20315;-63
2021/01/25 09:29:04;;;;;;;;;;;;;;;;;;5034073;28;19954;-62
2021/01/25 09:31:30;;;;;;;;;;;;;;;;;;5034220;28;19913;-62
2021/01/25 09:33:56;;;;;;;;;;;;;;;;;;5034078;28;20515;-63
2021/01/25 09:36:22;;;;;;;;;;;;;;;;;;5033906;28;20438;-63
2021/01/25 09:38:48;;;;;;;;;;;;;;;;;;5034141;28;19925;-62
2021/01/25 09:41:15;;;;;;;;;;;;;;;;;;5033903;28;19936;-63
2021/01/25 09:43:41;;;;;;;;;;;;;;;;;;5034587;28;20328;-63
2021/01/25 09:46:07;;;;;;;;;;;;;;;;;;5033935;28;20045;-62
2021/01/25 09:48:33;;;;;;;;;;;;;;;;;;5033863;28;19932;-63
2021/01/25 09:50:59;;;;;;;;;;;;;;;;;;5032517;28;19956;-62
2021/01/25 09:53:25;;;;;;;;;;;;;;;;;;5031569;28;20454;-62
2021/01/25 09:55:51;;;;;;;;;;;;;;;;;;5032740;28;19909;-63
2021/01/25 09:58:17;;;;;;;;;;;;;;;;;;5034014;28;19913;-63
2021/01/25 10:00:43;;;;;;;;;;;;;;;;;;5032745;28;20400;-63
2021/01/25 10:03:09;;;;;;;;;;;;;;;;;;5014163;28;19950;-63
2021/01/25 10:05:35;;;;;;;;;;;;;;;;;;5013954;28;19924;-63
2021/01/25 10:08:01;;;;;;;;;;;;;;;;;;5013203;28;19955;-63
2021/01/25 10:10:27;;;;;;;;;;;;;;;;;;5014665;28;19927;-62
2021/01/25 10:12:53;;;;;;;;;;;;;;;;;;5013631;28;19922;-62
2021/01/25 10:15:19;;;;;;;;;;;;;;;;;;5016799;28;20462;-61
2021/01/25 10:17:46;;;;;;;;;;;;;;;;;;5020110;28;19948;-62
2021/01/25 10:20:12;;;;;;;;;;;;;;;;;;5021601;28;19950;-62
2021/01/25 10:22:38;;;;;;;;;;;;;;;;;;5016593;28;20249;-61
2021/01/25 10:25:04;;;;;;;;;;;;;;;;;;5022595;28;19989;-62
2021/01/25 10:27:29;;;;;;;;;;;;;;;;;;5015363;28;19999;-61
2021/01/25 10:29:56;;;;;;;;;;;;;;;;;;5017505;28;19952;-61
2021/01/25 10:32:22;;;;;;;;;;;;;;;;;;5019438;28;19933;-61
2021/01/25 10:34:48;;;;;;;;;;;;;;;;;;5013449;28;19939;-62
2021/01/25 10:37:14;;;;;;;;;;;;;;;;;;5018315;28;19928;-62
2021/01/25 10:39:40;;;;;;;;;;;;;;;;;;5016115;28;19930;-62
2021/01/25 10:42:06;;;;;;;;;;;;;;;;;;5014082;28;19913;-61
2021/01/25 10:44:31;;;;;;;;;;;;;;;;;;5013166;28;19920;-61
2021/01/25 10:46:57;;;;;;;;;;;;;;;;;;5014161;28;19957;-62
2021/01/25 10:49:23;;;;;;;;;;;;;;;;;;5013157;28;19947;-62
2021/01/25 10:51:49;;;;;;;;;;;;;;;;;;5017151;28;19959;-62
2021/01/25 10:54:22;;;;;;;;;;;;;;;;;;5013579;28;19966;-63
2021/01/25 10:56:48;;;;;;;;;;;;;;;;;;5013563;28;20292;-63
2021/01/25 10:59:14;;;;;;;;;;;;;;;;;;5013394;28;19948;-63
2021/01/25 11:01:40;;;;;;;;;;;;;;;;;;5013747;28;19923;-63
2021/01/25 11:04:06;;;;;;;;;;;;;;;;;;5013279;28;19948;-63
2021/01/25 11:06:32;;;;;;;;;;;;;;;;;;5013355;28;19924;-62
2021/01/25 11:08:58;;;;;;;;;;;;;;;;;;5013193;28;19923;-62
2021/01/25 11:11:24;;;;;;;;;;;;;;;;;;5016997;28;19920;-62
2021/01/25 11:13:49;;;;;;;;;;;;;;;;;;5020025;28;20319;-62
2021/01/25 11:16:15;;;;;;;;;;;;;;;;;;5017338;28;19998;-62
2021/01/25 11:18:41;;;;;;;;;;;;;;;;;;5018161;28;19914;-63
2021/01/25 11:21:07;;;;;;;;;;;;;;;;;;5026680;28;20408;-63
2021/01/25 11:23:33;;;;;;;;;;;;;;;;;;5019139;28;19913;-63
2021/01/25 11:25:59;;;;;;;;;;;;;;;;;;5016569;28;20007;-61
2021/01/25 11:28:25;;;;;;;;;;;;;;;;;;5031428;28;20521;-63
2021/01/25 11:30:51;;;;;;;;;;;;;;;;;;5032608;28;19930;-62
2021/01/25 11:33:17;;;;;;;;;;;;;;;;;;5020812;28;19924;-62
2021/01/25 11:35:43;;;;;;;;;;;;;;;;;;5016313;28;20313;-61
2021/01/25 11:38:09;;;;;;;;;;;;;;;;;;5035921;28;19927;-63
2021/01/25 11:40:35;;;;;;;;;;;;;;;;;;5036163;28;19930;-63
2021/01/25 11:43:01;;;;;;;;;;;;;;;;;;5037127;28;19966;-63
2021/01/25 11:45:27;;;;;;;;;;;;;;;;;;5035981;28;19951;-63
2021/01/25 11:47:53;;;;;;;;;;;;;;;;;;5035998;28;19923;-63
2021/01/25 11:50:19;;;;;;;;;;;;;;;;;;5036191;28;19951;-63
2021/01/25 11:52:45;;;;;;;;;;;;;;;;;;5035883;28;19925;-63
2021/01/25 11:55:11;;;;;;;;;;;;;;;;;;5035845;28;19947;-63
2021/01/25 11:57:37;;;;;;;;;;;;;;;;;;5035842;28;20289;-64
2021/01/25 12:00:03;;;;;;;;;;;;;;;;;;5036103;28;20004;-63
2021/01/25 12:02:29;;;;;;;;;;;;;;;;;;5035895;28;20392;-63
2021/01/25 12:04:55;;;;;;;;;;;;;;;;;;5035598;28;20020;-63
2021/01/25 12:07:21;;;;;;;;;;;;;;;;;;5035629;28;19959;-63
2021/01/25 12:09:47;;;;;;;;;;;;;;;;;;5035488;28;19949;-64
2021/01/25 12:12:13;;;;;;;;;;;;;;;;;;5035841;28;19972;-64
2021/01/25 12:14:39;;;;;;;;;;;;;;;;;;5035423;28;19971;-62
2021/01/25 12:17:05;;;;;;;;;;;;;;;;;;5035401;28;19910;-63
2021/01/25 12:19:31;;;;;;;;;;;;;;;;;;5035370;28;20403;-63
2021/01/25 12:21:57;;;;;;;;;;;;;;;;;;5034218;28;19951;-63
2021/01/25 12:24:23;;;;;;;;;;;;;;;;;;5035348;28;19925;-63
2021/01/25 12:26:50;;;;;;;;;;;;;;;;;;5035386;28;20436;-63
2021/01/25 12:29:16;;;;;;;;;;;;;;;;;;5035130;28;19955;-62
2021/01/25 12:31:42;;;;;;;;;;;;;;;;;;5029482;28;19917;-61
2021/01/25 12:34:08;;;;;;;;;;;;;;;;;;5016504;28;20909;-62
2021/01/25 12:36:34;;;;;;;;;;;;;;;;;;5015844;28;19929;-60
2021/01/25 12:39:00;;;;;;;;;;;;;;;;;;5015063;28;19967;-63
2021/01/25 12:41:26;;;;;;;;;;;;;;;;;;5015139;28;19916;-65
2021/01/25 12:43:52;;;;;;;;;;;;;;;;;;5018867;28;19924;-63
2021/01/25 12:46:18;;;;;;;;;;;;;;;;;;5032679;28;19947;-63
2021/01/25 12:48:44;;;;;;;;;;;;;;;;;;5026339;28;19917;-63
2021/01/25 12:51:10;;;;;;;;;;;;;;;;;;5021850;28;19954;-63
2021/01/25 12:53:36;;;;;;;;;;;;;;;;;;5019131;28;19975;-62
2021/01/25 12:56:02;;;;;;;;;;;;;;;;;;5023473;28;20339;-63
2021/01/25 12:58:28;;;;;;;;;;;;;;;;;;5018420;28;19924;-64
2021/01/25 13:00:54;;;;;;;;;;;;;;;;;;5016402;28;19958;-63
2021/01/25 13:03:20;;;;;;;;;;;;;;;;;;5025200;28;19926;-64
2021/01/25 13:05:46;;;;;;;;;;;;;;;;;;5014469;28;19951;-63
2021/01/25 13:08:12;;;;;;;;;;;;;;;;;;5017244;28;20377;-63
2021/01/25 13:10:38;;;;;;;;;;;;;;;;;;5023241;28;19959;-63
2021/01/25 13:13:05;;;;;;;;;;;;;;;;;;5019946;28;20375;-63
2021/01/25 13:15:30;;;;;;;;;;;;;;;;;;5016595;28;19950;-63
2021/01/25 13:17:56;;;;;;;;;;;;;;;;;;5016172;28;20132;-63
2021/01/25 13:20:22;;;;;;;;;;;;;;;;;;5017854;28;19917;-64
2021/01/25 13:22:48;;;;;;;;;;;;;;;;;;5017612;28;19928;-62
2021/01/25 13:25:14;;;;;;;;;;;;;;;;;;5014630;28;19921;-62
2021/01/25 13:27:40;;;;;;;;;;;;;;;;;;5023084;28;20076;-63
2021/01/25 13:30:06;;;;;;;;;;;;;;;;;;5034096;28;20054;-62
2021/01/25 13:32:33;;;;;;;;;;;;;;;;;;5029148;28;19924;-63
2021/01/25 13:34:58;;;;;;;;;;;;;;;;;;5019010;28;19968;-63
2021/01/25 13:37:24;;;;;;;;;;;;;;;;;;5014336;28;20386;-63
2021/01/25 13:39:50;;;;;;;;;;;;;;;;;;5014476;28;19924;-63
2021/01/25 13:42:16;;;;;;;;;;;;;;;;;;5024308;28;20397;-63
2021/01/25 13:44:42;;;;;;;;;;;;;;;;;;5013818;28;19975;-62
2021/01/25 13:47:08;;;;;;;;;;;;;;;;;;5014213;28;19956;-63
2021/01/25 13:49:34;;;;;;;;;;;;;;;;;;5015357;28;20319;-62
2021/01/25 13:52:00;;;;;;;;;;;;;;;;;;5025987;28;19947;-62
2021/01/25 13:54:26;;;;;;;;;;;;;;;;;;5014620;28;19954;-63
2021/01/25 13:56:52;;;;;;;;;;;;;;;;;;5013949;28;20058;-63
2021/01/25 13:59:18;;;;;;;;;;;;;;;;;;5014038;28;19977;-63
2021/01/25 14:01:44;;;;;;;;;;;;;;;;;;5024804;28;19913;-63
2021/01/25 14:04:10;;;;;;;;;;;;;;;;;;5016695;28;20034;-62
2021/01/25 14:06:36;;;;;;;;;;;;;;;;;;5025105;28;20398;-63
2021/01/25 14:09:02;;;;;;;;;;;;;;;;;;5025511;28;19917;-64
2021/01/25 14:11:28;;;;;;;;;;;;;;;;;;5026092;28;19944;-63
2021/01/25 14:13:54;;;;;;;;;;;;;;;;;;5022873;28;19925;-63
2021/01/25 14:16:20;;;;;;;;;;;;;;;;;;5020434;28;19919;-62
2021/01/25 14:18:46;;;;;;;;;;;;;;;;;;5019079;28;20421;-63
2021/01/25 14:21:12;;;;;;;;;;;;;;;;;;5025475;28;19913;-63
2021/01/25 14:23:38;;;;;;;;;;;;;;;;;;5028401;28;19970;-63
2021/01/25 14:26:04;;;;;;;;;;;;;;;;;;5033394;28;20431;-63
2021/01/25 14:28:30;;;;;;;;;;;;;;;;;;5033420;28;19916;-63
2021/01/25 14:30:56;;;;;;;;;;;;;;;;;;5031943;28;19925;-63
2021/01/25 14:33:23;;;;;;;;;;;;;;;;;;5027250;28;19909;-63
2021/01/25 14:35:49;;;;;;;;;;;;;;;;;;5014075;28;20358;-63
2021/01/25 14:38:15;;;;;;;;;;;;;;;;;;5013639;28;19947;-63
2021/01/25 14:40:41;;;;;;;;;;;;;;;;;;5013190;28;19945;-62
2021/01/25 14:43:07;;;;;;;;;;;;;;;;;;5013872;28;19913;-62
2021/01/25 14:45:33;;;;;;;;;;;;;;;;;;5013614;28;19954;-62
2021/01/25 14:48:01;;;;;;;;;;;;;;;;;;5013411;28;20467;-61
2021/01/25 14:50:27;;;;;;;;;;;;;;;;;;5019533;28;19986;-62
2021/01/25 14:52:53;;;;;;;;;;;;;;;;;;5019706;28;20397;-62
2021/01/25 14:55:18;;;;;;;;;;;;;;;;;;5017564;28;19926;-62
2021/01/25 14:57:44;;;;;;;;;;;;;;;;;;5018036;28;19998;-63
2021/01/25 15:00:10;;;;;;;;;;;;;;;;;;5017449;28;20313;-62
2021/01/25 15:02:36;;;;;;;;;;;;;;;;;;5017249;28;19998;-63
2021/01/25 15:05:02;;;;;;;;;;;;;;;;;;5016988;28;19946;-63
2021/01/25 15:07:28;;;;;;;;;;;;;;;;;;5017186;28;19909;-62
2021/01/25 15:09:54;;;;;;;;;;;;;;;;;;5016977;28;20297;-63
2021/01/25 15:12:20;;;;;;;;;;;;;;;;;;5017065;28;20271;-62
2021/01/25 15:14:46;;;;;;;;;;;;;;;;;;5017269;28;19931;-63
2021/01/25 15:17:13;;;;;;;;;;;;;;;;;;5017875;28;20022;-63
2021/01/25 15:19:39;;;;;;;;;;;;;;;;;;5016805;28;19928;-63
2021/01/25 15:22:05;;;;;;;;;;;;;;;;;;5016720;28;20026;-63
2021/01/25 15:24:31;;;;;;;;;;;;;;;;;;5016762;28;19921;-62
2021/01/25 15:26:57;;;;;;;;;;;;;;;;;;5018887;28;19914;-63
2021/01/25 15:29:23;;;;;;;;;;;;;;;;;;5016583;28;20004;-63
2021/01/25 15:31:49;;;;;;;;;;;;;;;;;;5018467;28;19935;-62
2021/01/25 15:34:15;;;;;;;;;;;;;;;;;;5022475;28;19926;-63
2021/01/25 15:36:41;;;;;;;;;;;;;;;;;;5016483;28;19924;-63
2021/01/25 15:39:06;;;;;;;;;;;;;;;;;;5016539;28;19909;-63
2021/01/25 15:41:33;;;;;;;;;;;;;;;;;;5016714;28;19914;-64
2021/01/25 15:43:59;;;;;;;;;;;;;;;;;;5016421;28;19930;-63
2021/01/25 15:46:25;;;;;;;;;;;;;;;;;;5016354;28;19935;-64
2021/01/25 15:48:51;;;;;;;;;;;;;;;;;;5018642;28;20358;-64
2021/01/25 15:51:17;;;;;;;;;;;;;;;;;;5028950;28;20062;-63
2021/01/25 15:53:43;;;;;;;;;;;;;;;;;;5035243;28;20337;-64
2021/01/25 15:56:09;;;;;;;;;;;;;;;;;;5035986;28;19909;-63
2021/01/25 15:58:35;;;;;;;;;;;;;;;;;;5036085;28;19925;-63
2021/01/25 16:01:01;;;;;;;;;;;;;;;;;;5035976;28;19927;-64
2021/01/25 16:03:27;;;;;;;;;;;;;;;;;;5035618;28;19928;-63
2021/01/25 16:05:53;;;;;;;;;;;;;;;;;;5034576;28;19955;-63
2021/01/25 16:08:19;;;;;;;;;;;;;;;;;;5035563;28;19948;-63
2021/01/25 16:10:45;;;;;;;;;;;;;;;;;;5034176;28;20404;-63
2021/01/25 16:13:11;;;;;;;;;;;;;;;;;;5035493;28;20283;-65
2021/01/25 16:15:37;;;;;;;;;;;;;;;;;;5035570;28;20001;-64
2021/01/25 16:18:03;;;;;;;;;;;;;;;;;;5035229;28;19970;-65
2021/01/25 16:20:29;;;;;;;;;;;;;;;;;;5033886;28;19941;-63
2021/01/25 16:22:55;;;;;;;;;;;;;;;;;;5035226;28;19970;-63
2021/01/25 16:25:21;;;;;;;;;;;;;;;;;;5034980;28;19921;-64
2021/01/25 16:27:47;;;;;;;;;;;;;;;;;;5032717;28;20014;-63
2021/01/25 16:30:13;;;;;;;;;;;;;;;;;;5035144;28;20479;-64
2021/01/25 16:32:39;;;;;;;;;;;;;;;;;;5033470;28;19923;-64
2021/01/25 16:35:05;;;;;;;;;;;;;;;;;;5033451;28;20013;-64
2021/01/25 16:37:31;;;;;;;;;;;;;;;;;;5035468;28;19952;-64